Time;durP1;ratioP1;P1;durP2;ratioP2;P2;SDS_P1;SDS_P2;PMS_P1;PMS_P2;Temp;Humidity;BMP_temperature;BMP_pressure;BME280_temperature;BME280_humidity;BME280_pressure;Samples;Min_cycle;Max_cycle;Signal;HPM_P1;HPM_P2
2021/04/20 00:02:11;;;;;;;30.08;20.33;;;;;;;10.91;71.89;101295.56;5056023;28;20064;-48
2021/04/20 00:04:37;;;;;;;28.35;19.40;;;;;;;10.90;72.32;101295.91;5070824;28;20098;-49
2021/04/20 00:07:04;;;;;;;28.75;20.92;;;;;;;10.92;72.10;101288.06;5069041;28;20463;-52
2021/04/20 00:09:30;;;;;;;27.63;19.25;;;;;;;10.92;72.28;101290.84;5069978;28;20442;-48
2021/04/20 00:11:56;;;;;;;36.40;22.63;;;;;;;10.91;72.19;101292.81;5058116;28;20444;-47
2021/04/20 00:14:23;;;;;;;37.65;23.52;;;;;;;10.83;72.48;101293.66;5051424;28;20040;-48
2021/04/20 00:16:49;;;;;;;35.85;23.70;;;;;;;10.78;72.90;101291.06;5049973;28;20049;-49
2021/04/20 00:19:15;;;;;;;34.60;23.60;;;;;;;10.74;73.06;101286.53;5051028;28;20648;-50
2021/04/20 00:21:42;;;;;;;35.75;23.33;;;;;;;10.81;72.75;101295.97;5059138;28;20071;-49
2021/04/20 00:24:09;;;;;;;35.22;22.35;;;;;;;10.81;73.00;101295.13;5051066;28;20049;-49
2021/04/20 00:26:35;;;;;;;27.55;20.98;;;;;;;10.84;72.85;101291.72;5051083;28;20095;-46
2021/04/20 00:29:01;;;;;;;30.60;18.40;;;;;;;10.86;72.63;101292.19;5051356;28;20037;-47
2021/04/20 00:31:28;;;;;;;28.73;17.88;;;;;;;10.88;72.31;101289.91;5051000;28;20065;-47
2021/04/20 00:33:54;;;;;;;24.75;17.02;;;;;;;10.84;72.25;101284.22;5051388;28;20666;-47
2021/04/20 00:36:20;;;;;;;25.63;16.15;;;;;;;10.81;72.48;101284.06;5065950;28;20094;-48
2021/04/20 00:38:46;;;;;;;27.58;17.38;;;;;;;10.78;72.39;101284.72;5057226;28;20136;-48
2021/04/20 00:41:14;;;;;;;20.38;14.40;;;;;;;10.76;72.71;101281.47;5051162;28;20052;-50
2021/04/20 00:43:46;;;;;;;21.58;14.73;;;;;;;10.71;72.69;101279.72;5049410;28;20076;-46
2021/04/20 00:46:18;;;;;;;22.23;14.23;;;;;;;10.74;72.25;101284.59;5050722;28;20455;-49
2021/04/20 00:48:45;;;;;;;18.95;14.98;;;;;;;10.73;72.51;101282.13;5051162;28;20076;-50
2021/04/20 00:51:12;;;;;;;22.42;15.13;;;;;;;10.73;72.41;101287.69;5064630;28;20094;-46
2021/04/20 00:53:39;;;;;;;22.80;14.48;;;;;;;10.71;72.45;101278.91;5077493;28;20147;-50
2021/04/20 00:56:06;;;;;;;20.48;14.93;;;;;;;10.70;72.56;101277.25;5050966;28;20056;-48
2021/04/20 00:58:32;;;;;;;17.90;13.93;;;;;;;10.68;72.51;101277.63;5060003;28;20145;-50
2021/04/20 01:00:59;;;;;;;20.23;14.23;;;;;;;10.67;72.52;101277.97;5070690;28;20094;-48
2021/04/20 01:03:26;;;;;;;22.98;14.18;;;;;;;10.69;72.57;101273.72;5070390;28;20041;-52
2021/04/20 01:05:54;;;;;;;20.40;13.48;;;;;;;10.69;72.46;101278.44;5057413;28;20071;-47
2021/04/20 01:08:24;;;;;;;18.95;13.27;;;;;;;10.64;72.50;101279.44;5074008;28;20087;-46
2021/04/20 01:10:55;;;;;;;20.52;14.95;;;;;;;10.60;72.51;101280.41;5069624;28;20052;-47
2021/04/20 01:13:32;;;;;;;23.63;14.43;;;;;;;10.57;72.95;101279.13;5072531;28;20477;-48
2021/04/20 01:15:59;;;;;;;21.77;15.10;;;;;;;10.56;72.84;101283.06;5057175;28;20440;-46
2021/04/20 01:18:33;;;;;;;23.60;14.70;;;;;;;10.54;73.09;101281.75;5071708;28;20113;-47
2021/04/20 01:21:06;;;;;;;21.92;14.95;;;;;;;10.56;73.02;101282.22;5054259;28;20118;-49
2021/04/20 01:23:56;;;;;;;23.08;13.52;;;;;;;10.55;73.08;101275.06;5090688;28;20082;-48
2021/04/20 01:26:26;;;;;;;20.23;14.20;;;;;;;10.51;72.99;101276.88;5089965;28;20053;-50
2021/04/20 01:28:54;;;;;;;20.40;13.23;;;;;;;10.52;72.96;101275.72;5060755;28;20045;-48
2021/04/20 01:31:21;;;;;;;19.15;14.05;;;;;;;10.49;72.71;101271.66;5073733;28;20071;-48
2021/04/20 01:33:48;;;;;;;24.83;15.00;;;;;;;10.49;73.08;101266.13;5056892;28;20447;-48
2021/04/20 01:36:21;;;;;;;27.25;17.38;;;;;;;10.45;73.22;101269.91;5053399;28;20075;-49
2021/04/20 01:38:50;;;;;;;25.08;16.23;;;;;;;10.39;73.47;101267.31;5054394;28;20124;-46
2021/04/20 01:41:17;;;;;;;26.92;16.75;;;;;;;10.33;73.77;101260.31;5054193;28;20049;-47
2021/04/20 01:43:44;;;;;;;25.75;15.52;;;;;;;10.35;73.92;101263.56;5053922;28;20045;-49
2021/04/20 01:46:14;;;;;;;23.13;15.73;;;;;;;10.35;73.93;101260.00;5054474;28;20048;-49
2021/04/20 01:48:40;;;;;;;25.40;16.38;;;;;;;10.34;74.09;101250.88;5052208;28;20045;-48
2021/04/20 01:51:08;;;;;;;24.48;16.30;;;;;;;10.38;73.94;101254.59;5066373;28;20075;-48
2021/04/20 01:53:35;;;;;;;24.55;17.30;;;;;;;10.35;74.18;101258.03;5083339;28;20078;-47
2021/04/20 01:56:04;;;;;;;26.90;18.52;;;;;;;10.27;74.52;101269.94;5054179;28;20052;-50
2021/04/20 01:58:31;;;;;;;31.08;18.20;;;;;;;10.27;74.62;101264.41;5050755;28;20083;-48
2021/04/20 02:01:03;;;;;;;26.17;17.42;;;;;;;10.27;74.72;101269.16;5049559;28;20472;-50
2021/04/20 02:03:30;;;;;;;;;;;;;;;10.22;74.99;101263.78;5069171;28;20512;-47
2021/04/20 02:05:57;;;;;;;26.42;18.27;;;;;;;10.20;74.63;101261.34;5059428;28;20007;-51
2021/04/20 02:08:24;;;;;;;28.98;19.98;;;;;;;10.20;74.98;101258.56;5053699;28;20037;-47
2021/04/20 02:10:51;;;;;;;28.98;19.05;;;;;;;10.23;74.94;101246.84;5053326;28;20593;-47
2021/04/20 02:13:21;;;;;;;25.55;16.33;;;;;;;10.26;75.21;101254.50;5053307;28;20474;-50
2021/04/20 02:15:47;;;;;;;25.38;16.85;;;;;;;10.26;74.77;101254.50;5067120;28;20124;-47
2021/04/20 02:18:14;;;;;;;21.48;15.15;;;;;;;10.26;74.85;101250.91;5056088;28;20044;-47
2021/04/20 02:20:42;;;;;;;20.65;15.05;;;;;;;10.29;74.57;101253.84;5057633;28;20045;-47
2021/04/20 02:23:09;;;;;;;18.92;13.13;;;;;;;10.32;74.41;101253.19;5087826;28;20101;-48
2021/04/20 02:25:36;;;;;;;17.20;13.15;;;;;;;10.32;74.23;101250.41;5091663;28;20051;-46
2021/04/20 02:28:04;;;;;;;20.83;12.82;;;;;;;10.27;74.38;101253.34;5051742;28;20467;-50
2021/04/20 02:30:31;;;;;;;17.17;12.50;;;;;;;10.25;74.35;101255.63;5053083;28;20049;-47
2021/04/20 02:32:58;;;;;;;18.67;11.07;;;;;;;10.24;74.35;101261.50;5053312;28;20041;-49
2021/04/20 02:35:28;;;;;;;18.20;11.48;;;;;;;10.25;74.34;101244.56;5052875;28;20135;-48
2021/04/20 02:37:55;;;;;;;14.98;10.35;;;;;;;10.29;74.16;101247.50;5052944;28;20080;-48
2021/04/20 02:40:25;;;;;;;17.60;12.02;;;;;;;10.29;74.20;101245.53;5053266;28;20099;-47
2021/04/20 02:42:53;;;;;;;16.27;11.23;;;;;;;10.27;74.25;101250.56;5052738;28;20094;-51
2021/04/20 02:45:21;;;;;;;17.75;10.80;;;;;;;10.18;74.58;101251.75;5053017;28;20053;-47
2021/04/20 02:47:48;;;;;;;18.83;11.30;;;;;;;10.14;74.64;101253.56;5054394;28;20379;-49
2021/04/20 02:50:20;;;;;;;15.18;11.07;;;;;;;10.09;74.97;101256.44;5052622;28;20051;-52
2021/04/20 02:52:48;;;;;;;16.30;11.45;;;;;;;10.08;75.03;101249.31;5066146;28;20770;-51
2021/04/20 02:55:16;;;;;;;15.82;12.23;;;;;;;10.02;75.10;101251.44;5052282;28;20049;-48
2021/04/20 02:57:45;;;;;;;22.65;11.95;;;;;;;9.98;75.30;101250.47;5052790;28;20065;-48
2021/04/20 03:00:14;;;;;;;19.20;12.93;;;;;;;10.04;75.16;101248.34;5052942;28;20045;-48
2021/04/20 03:02:43;;;;;;;18.27;13.43;;;;;;;10.03;75.25;101244.78;5054559;28;20052;-48
2021/04/20 03:05:18;;;;;;;15.43;12.23;;;;;;;10.01;75.37;101244.28;5054498;28;20387;-48
2021/04/20 03:07:46;;;;;;;15.88;12.25;;;;;;;10.06;75.13;101249.63;5055406;28;20046;-48
2021/04/20 03:10:17;;;;;;;14.77;11.77;;;;;;;10.06;75.23;101252.38;5063544;28;20483;-48
2021/04/20 03:12:45;;;;;;;16.67;12.88;;;;;;;10.01;75.36;101254.50;5051307;28;20437;-51
2021/04/20 03:15:14;;;;;;;16.75;12.50;;;;;;;9.99;75.67;101246.56;5052466;28;20045;-51
2021/04/20 03:17:43;;;;;;;16.73;13.07;;;;;;;10.05;75.45;101253.56;5051682;28;20398;-48
2021/04/20 03:20:11;;;;;;;16.95;12.63;;;;;;;10.04;75.29;101243.63;5057595;28;20409;-49
2021/04/20 03:22:42;;;;;;;16.48;13.10;;;;;;;10.04;75.41;101237.25;5078599;28;20043;-48
2021/04/20 03:25:15;;;;;;;16.35;12.82;;;;;;;10.04;75.42;101249.16;5051404;28;20529;-50
2021/04/20 03:27:49;;;;;;;15.15;12.18;;;;;;;10.06;75.51;101244.09;5055063;28;20033;-51
2021/04/20 03:30:17;;;;;;;15.20;12.38;;;;;;;10.08;75.23;101244.59;5064500;28;20033;-51
2021/04/20 03:33:05;;;;;;;13.23;10.52;;;;;;;10.04;75.41;101249.16;5051807;28;20451;-48
2021/04/20 03:35:39;;;;;;;16.30;10.82;;;;;;;10.04;75.51;101257.44;5052272;28;20045;-50
2021/04/20 03:38:21;;;;;;;14.55;9.82;;;;;;;9.98;75.65;101244.13;5064789;28;20036;-47
2021/04/20 03:40:50;;;;;;;;;;;;;;;9.93;75.69;101247.09;5052350;28;20398;-50
2021/04/20 03:43:19;;;;;;;13.50;10.10;;;;;;;9.94;75.32;101248.69;5069242;28;19973;-46
2021/04/20 03:45:56;;;;;;;13.82;10.88;;;;;;;9.91;75.56;101244.63;5051716;28;20498;-47
2021/04/20 03:48:29;;;;;;;23.45;12.90;;;;;;;9.91;75.55;101247.38;5051771;28;20478;-48
2021/04/20 03:51:08;;;;;;;17.58;12.93;;;;;;;9.88;75.53;101245.28;5061180;28;20035;-48
2021/04/20 03:53:35;;;;;;;17.98;12.38;;;;;;;9.86;75.50;101247.56;5062375;28;20486;-50
2021/04/20 03:56:03;;;;;;;21.98;14.10;;;;;;;9.85;75.60;101248.69;5051852;28;20398;-51
2021/04/20 03:58:32;;;;;;;23.38;14.68;;;;;;;9.80;75.86;101252.44;5059181;28;20123;-51
2021/04/20 04:01:04;;;;;;;26.58;16.48;;;;;;;9.79;76.02;101256.34;5069440;28;20048;-48
2021/04/20 04:03:30;;;;;;;26.97;15.00;;;;;;;9.80;76.03;101248.88;5063890;28;20037;-46
2021/04/20 04:05:59;;;;;;;25.85;17.17;;;;;;;9.81;76.08;101253.28;5055433;28;20075;-54
2021/04/20 04:08:27;;;;;;;23.15;15.95;;;;;;;9.82;76.05;101252.94;5040737;28;20040;-48
2021/04/20 04:10:58;;;;;;;24.38;15.38;;;;;;;9.83;76.08;101259.28;5061657;28;20078;-46
2021/04/20 04:13:30;;;;;;;25.77;16.58;;;;;;;9.80;75.80;101259.94;5069658;28;20041;-51
2021/04/20 04:16:02;;;;;;;24.42;15.88;;;;;;;9.77;76.05;101249.53;5069663;28;20037;-51
2021/04/20 04:18:33;;;;;;;26.40;16.52;;;;;;;9.76;75.98;101253.44;5053983;28;20045;-49
2021/04/20 04:21:03;;;;;;;21.75;15.23;;;;;;;9.73;76.10;101254.91;5064950;28;20075;-49
2021/04/20 04:23:42;;;;;;;28.83;16.20;;;;;;;9.74;76.26;101244.66;5087359;28;20111;-51
2021/04/20 04:26:14;;;;;;;22.35;15.02;;;;;;;9.75;76.08;101246.28;5069747;28;20049;-46
2021/04/20 04:28:43;;;;;;;19.63;14.23;;;;;;;9.76;76.08;101243.19;5066149;28;20063;-50
2021/04/20 04:31:10;;;;;;;23.15;15.88;;;;;;;9.80;76.21;101252.44;5067257;28;20813;-51
2021/04/20 04:33:39;;;;;;;23.40;15.82;;;;;;;9.82;76.04;101252.13;5059574;28;20127;-50
2021/04/20 04:36:11;;;;;;;24.02;15.77;;;;;;;9.82;76.01;101258.47;5057150;28;20044;-46
2021/04/20 04:38:39;;;;;;;21.42;14.77;;;;;;;9.82;76.05;101256.84;5058996;28;20064;-49
2021/04/20 04:41:08;;;;;;;18.92;14.60;;;;;;;9.80;76.13;101259.94;5070259;28;20132;-49
2021/04/20 04:43:35;;;;;;;22.17;15.85;;;;;;;9.79;76.17;101252.78;5053475;28;20041;-48
2021/04/20 04:46:02;;;;;;;22.60;14.68;;;;;;;9.80;76.19;101254.41;5053744;28;20037;-50
2021/04/20 04:48:30;;;;;;;24.75;15.15;;;;;;;9.77;76.45;101255.03;5070380;28;20086;-48
2021/04/20 04:50:59;;;;;;;19.60;14.80;;;;;;;9.78;76.43;101251.16;5063061;28;20076;-52
2021/04/20 04:53:27;;;;;;;24.05;14.98;;;;;;;9.77;76.48;101244.00;5056742;28;20072;-50
2021/04/20 04:56:02;;;;;;;21.20;15.52;;;;;;;9.74;76.77;101266.78;5051702;28;20092;-50
2021/04/20 04:58:31;;;;;;;26.77;16.73;;;;;;;9.73;76.62;101260.44;5067966;28;20041;-49
2021/04/20 05:01:02;;;;;;;25.80;16.55;;;;;;;9.73;76.78;101265.16;5053754;28;20052;-50
2021/04/20 05:03:29;;;;;;;26.10;14.75;;;;;;;9.71;76.70;101256.38;5061765;28;20468;-51
2021/04/20 05:05:59;;;;;;;26.13;15.55;;;;;;;9.74;76.67;101266.78;5067305;28;20047;-50
2021/04/20 05:08:26;;;;;;;23.85;15.05;;;;;;;9.73;76.81;101265.16;5057182;28;20124;-50
2021/04/20 05:11:01;;;;;;;25.35;15.82;;;;;;;9.71;77.08;101262.72;5053812;28;20406;-51
2021/04/20 05:13:29;;;;;;;24.90;16.40;;;;;;;9.74;76.93;101269.56;5052957;28;20076;-52
2021/04/20 05:15:55;;;;;;;22.58;14.65;;;;;;;9.72;77.07;101269.03;5052410;28;20129;-52
2021/04/20 05:18:25;;;;;;;22.75;15.23;;;;;;;9.72;76.98;101274.56;5053084;28;20052;-52
2021/04/20 05:20:52;;;;;;;20.98;14.32;;;;;;;9.72;76.85;101269.03;5053329;28;20051;-51
2021/04/20 05:23:18;;;;;;;23.08;14.77;;;;;;;9.73;77.06;101271.50;5052411;28;20131;-51
2021/04/20 05:25:45;;;;;;;21.10;14.18;;;;;;;9.76;77.21;101272.78;5057964;28;20056;-49
2021/04/20 05:28:11;;;;;;;22.73;14.80;;;;;;;9.80;76.98;101276.53;5071893;28;20044;-50
2021/04/20 05:30:39;;;;;;;19.73;13.50;;;;;;;9.77;76.76;101277.16;5060615;28;20060;-50
2021/04/20 05:33:06;;;;;;;22.15;13.90;;;;;;;9.79;76.95;101281.22;5051407;28;20075;-48
2021/04/20 05:35:36;;;;;;;17.98;12.75;;;;;;;9.79;76.88;101280.44;5034499;28;20127;-51
2021/04/20 05:38:03;;;;;;;19.60;13.18;;;;;;;9.77;76.79;101282.69;5064712;28;20069;-53
2021/04/20 05:40:31;;;;;;;22.35;15.32;;;;;;;9.75;76.97;101282.22;5058027;28;20044;-48
2021/04/20 05:43:01;;;;;;;21.23;14.77;;;;;;;9.77;76.75;101283.53;5054529;28;20503;-47
2021/04/20 05:45:28;;;;;;;24.48;14.50;;;;;;;9.78;76.94;101287.91;5071553;28;20541;-52
2021/04/20 05:47:54;;;;;;;20.42;14.20;;;;;;;9.79;76.94;101291.50;5071715;28;20079;-49
2021/04/20 05:50:24;;;;;;;22.00;13.75;;;;;;;9.78;76.89;101289.88;5062513;28;20037;-46
2021/04/20 05:52:51;;;;;;;18.95;12.73;;;;;;;9.75;77.39;101284.97;5054859;28;20037;-48
2021/04/20 05:55:19;;;;;;;23.25;14.38;;;;;;;9.76;77.40;101292.16;5060431;28;20102;-53
2021/04/20 05:57:50;;;;;;;21.45;14.48;;;;;;;9.79;77.26;101291.50;5067698;28;20045;-49
2021/04/20 06:00:18;;;;;;;21.15;14.05;;;;;;;9.82;77.26;101290.84;5063041;28;20064;-48
2021/04/20 06:02:47;;;;;;;23.33;13.68;;;;;;;9.87;77.06;101292.63;5065951;28;20070;-48
2021/04/20 06:05:15;;;;;;;18.35;15.07;;;;;;;9.87;76.79;101293.44;5064259;28;20044;-48
2021/04/20 06:07:45;;;;;;;21.90;14.98;;;;;;;9.91;77.13;101301.88;5052953;28;20044;-51
2021/04/20 06:10:14;;;;;;;20.95;13.15;;;;;;;9.89;77.23;101296.69;5052028;28;20072;-47
2021/04/20 06:12:43;;;;;;;21.48;13.80;;;;;;;9.94;77.24;101298.47;5065098;28;20433;-47
2021/04/20 06:15:10;;;;;;;18.88;13.43;;;;;;;9.92;77.15;101304.34;5071441;28;20083;-47
2021/04/20 06:17:41;;;;;;;24.17;14.68;;;;;;;9.93;77.33;101308.72;5060073;28;20045;-50
2021/04/20 06:20:13;;;;;;;21.52;14.20;;;;;;;9.99;77.13;101301.88;5052333;28;20033;-47
2021/04/20 06:22:42;;;;;;;20.52;14.30;;;;;;;10.03;77.15;101302.88;5061266;28;20052;-52
2021/04/20 06:25:10;;;;;;;17.77;12.57;;;;;;;10.03;77.02;101313.94;5051499;28;20053;-48
2021/04/20 06:27:38;;;;;;;18.23;12.65;;;;;;;10.04;77.26;101314.72;5051764;28;20498;-53
2021/04/20 06:30:09;;;;;;;21.10;13.23;;;;;;;10.05;77.43;101314.41;5051992;28;20065;-47
2021/04/20 06:32:37;;;;;;;14.77;11.90;;;;;;;10.05;77.37;101311.66;5055110;28;20040;-49
2021/04/20 06:35:06;;;;;;;20.65;13.48;;;;;;;10.05;77.33;101314.41;5062814;28;20064;-47
2021/04/20 06:37:37;;;;;;;16.05;12.10;;;;;;;10.10;77.24;101313.41;5051428;28;20124;-48
2021/04/20 06:40:09;;;;;;;21.88;13.15;;;;;;;10.12;77.05;101306.44;5052045;28;20135;-48
2021/04/20 06:42:42;;;;;;;21.83;12.40;;;;;;;10.09;77.03;101306.25;5051599;28;20090;-47
2021/04/20 06:45:12;;;;;;;17.90;13.48;;;;;;;10.07;76.86;101309.34;5051160;28;20286;-49
2021/04/20 06:47:53;;;;;;;19.42;13.27;;;;;;;10.06;77.10;101310.47;5051253;28;20456;-48
2021/04/20 06:50:23;;;;;;;18.58;12.20;;;;;;;10.06;77.15;101312.47;5052421;28;20391;-47
2021/04/20 06:53:00;;;;;;;18.92;12.68;;;;;;;10.08;77.13;101304.66;5050384;28;20053;-49
2021/04/20 06:55:40;;;;;;;18.95;11.82;;;;;;;10.12;77.01;101308.38;5051805;28;20103;-50
2021/04/20 06:58:33;;;;;;;15.38;10.88;;;;;;;10.11;76.89;101306.75;5059394;28;20048;-53
2021/04/20 07:01:06;;;;;;;14.30;10.30;;;;;;;10.14;76.91;101308.91;5065655;28;20128;-49
2021/04/20 07:03:40;;;;;;;21.95;12.38;;;;;;;10.16;76.67;101312.97;5060565;28;20115;-48
2021/04/20 07:06:16;;;;;;;17.45;10.30;;;;;;;10.18;76.59;101321.75;5059459;28;20486;-51
2021/04/20 07:08:52;;;;;;;13.98;9.75;;;;;;;10.19;76.46;101312.28;5068239;28;20403;-48
2021/04/20 07:11:19;;;;;;;15.27;10.75;;;;;;;10.23;76.58;101324.34;5065785;28;20090;-46
2021/04/20 07:13:49;;;;;;;15.40;10.48;;;;;;;10.31;76.50;101315.19;5051194;28;20080;-47
2021/04/20 07:16:33;;;;;;;12.65;9.95;;;;;;;10.38;76.37;101326.56;5050948;28;20063;-48
2021/04/20 07:19:25;;;;;;;12.50;9.40;;;;;;;10.48;76.19;101321.84;5052929;28;20457;-47
2021/04/20 07:22:36;;;;;;;15.15;9.27;;;;;;;10.52;76.09;101328.31;5055789;28;20044;-47
2021/04/20 07:25:30;;;;;;;14.23;9.02;;;;;;;10.63;75.91;101338.72;5055710;28;20158;-50
2021/04/20 07:28:17;;;;;;;16.60;11.05;;;;;;;10.76;75.78;101328.56;5058858;28;20099;-46
2021/04/20 07:30:51;;;;;;;12.82;8.20;;;;;;;10.84;75.47;101330.47;5057550;28;20064;-47
2021/04/20 07:34:11;;;;;;;11.25;8.48;;;;;;;10.82;74.97;101330.81;5069435;28;20044;-50
2021/04/20 07:37:05;;;;;;;11.73;7.30;;;;;;;10.78;75.04;101337.34;5007220;28;20133;-47
2021/04/20 07:39:40;;;;;;;13.98;8.48;;;;;;;10.81;74.57;101336.69;5052072;28;20094;-48
2021/04/20 07:42:22;;;;;;;16.40;8.98;;;;;;;10.81;74.26;101339.44;5051073;28;20120;-46
2021/04/20 07:45:03;;;;;;;12.80;7.53;;;;;;;10.80;73.85;101337.84;5050919;28;20041;-48
2021/04/20 07:47:40;;;;;;;15.43;7.80;;;;;;;10.80;73.64;101340.63;5051090;28;20609;-49
2021/04/20 07:50:16;;;;;;;10.52;7.88;;;;;;;10.82;73.64;101341.09;5050447;28;20064;-48
2021/04/20 07:53:00;;;;;;;13.85;7.60;;;;;;;10.85;73.59;101340.44;5064878;28;20041;-49
2021/04/20 07:55:36;;;;;;;13.15;8.88;;;;;;;10.88;73.53;101340.56;5049838;28;20053;-47
2021/04/20 07:58:06;;;;;;;12.80;8.05;;;;;;;10.96;73.09;101347.22;5050298;28;20143;-47
2021/04/20 08:00:36;;;;;;;12.38;7.60;;;;;;;10.95;72.50;101345.59;5067140;28;20043;-47
2021/04/20 08:03:24;;;;;;;11.77;7.57;;;;;;;10.95;72.59;101351.13;5060324;28;20045;-49
2021/04/20 08:06:00;;;;;;;14.20;7.32;;;;;;;10.91;72.89;101356.50;5047919;28;20113;-49
2021/04/20 08:08:35;;;;;;;11.82;8.02;;;;;;;10.94;73.00;101349.50;5049473;28;20041;-47
2021/04/20 08:11:10;;;;;;;11.77;7.50;;;;;;;11.01;73.06;101358.91;5049917;28;20124;-46
2021/04/20 08:13:49;;;;;;;18.45;9.18;;;;;;;11.00;72.95;101354.53;5049685;28;20045;-48
2021/04/20 08:16:21;;;;;;;12.73;8.45;;;;;;;10.97;72.78;101354.38;5049531;28;20067;-46
2021/04/20 08:19:03;;;;;;;12.48;8.10;;;;;;;10.98;72.97;101344.94;5064870;28;20657;-47
2021/04/20 08:21:32;;;;;;;11.87;9.83;;;;;;;11.06;72.97;101344.06;5066072;28;20059;-52
2021/04/20 08:24:04;;;;;;;14.57;8.48;;;;;;;11.12;72.90;101345.50;5058197;28;20098;-51
2021/04/20 08:26:37;;;;;;;13.98;8.90;;;;;;;11.16;72.84;101352.00;5049185;28;20049;-46
2021/04/20 08:29:09;;;;;;;13.82;8.38;;;;;;;11.13;72.48;101349.06;5056917;28;20113;-46
2021/04/20 08:31:42;;;;;;;15.35;8.90;;;;;;;11.11;72.53;101354.97;5061227;28;20521;-46
2021/04/20 08:34:35;;;;;;;14.50;8.65;;;;;;;11.17;72.35;101353.66;5051496;28;20045;-49
2021/04/20 08:37:31;;;;;;;12.95;8.95;;;;;;;11.16;72.12;101352.00;5048184;28;20110;-50
2021/04/20 08:40:20;;;;;;;14.95;8.35;;;;;;;11.24;72.22;101358.66;5048919;28;20379;-47
2021/04/20 08:43:20;;;;;;;13.05;9.05;;;;;;;11.32;71.93;101355.81;5061725;28;20145;-47
2021/04/20 08:46:18;;;;;;;12.32;8.95;;;;;;;11.40;71.76;101354.97;5055628;28;20040;-47
2021/04/20 08:49:15;;;;;;;16.70;8.35;;;;;;;11.54;71.81;101351.94;5064738;28;20127;-50
2021/04/20 08:52:19;;;;;;;15.80;8.13;;;;;;;11.66;71.29;101359.50;5063195;28;20044;-47
2021/04/20 08:55:15;;;;;;;11.77;8.57;;;;;;;11.69;71.65;101353.31;5067355;28;20448;-48
2021/04/20 08:57:56;;;;;;;13.98;7.35;;;;;;;11.73;71.09;101352.28;5033870;28;20053;-46
2021/04/20 09:00:28;;;;;;;13.15;7.25;;;;;;;11.71;71.17;101359.34;5060972;28;20042;-47
2021/04/20 09:03:42;;;;;;;10.93;7.53;;;;;;;11.68;70.68;101358.03;5065210;28;20055;-46
2021/04/20 09:06:27;;;;;;;12.93;8.10;;;;;;;11.75;70.33;101363.06;5033962;28;20086;-47
2021/04/20 09:09:12;;;;;;;12.07;7.70;;;;;;;11.75;70.52;101365.84;5049021;28;20041;-47
2021/04/20 09:11:45;;;;;;;9.05;6.40;;;;;;;11.80;70.48;101366.47;5055955;28;20232;-48
2021/04/20 09:14:27;;;;;;;12.00;7.43;;;;;;;11.91;70.40;101362.13;5062556;28;20786;-49
2021/04/20 09:16:58;;;;;;;10.27;6.53;;;;;;;11.97;70.44;101359.94;5050060;28;20103;-46
2021/04/20 09:19:34;;;;;;;11.30;7.35;;;;;;;12.06;70.18;101366.25;5054192;28;20052;-49
2021/04/20 09:22:10;;;;;;;13.15;8.10;;;;;;;12.19;70.37;101367.91;5060643;28;20044;-50
2021/04/20 09:24:47;;;;;;;14.70;9.25;;;;;;;12.27;69.89;101364.25;5053011;28;20474;-48
2021/04/20 09:27:39;;;;;;;16.38;9.23;;;;;;;12.39;70.02;101360.72;5061446;28;20040;-44
2021/04/20 09:30:13;;;;;;;13.35;9.48;;;;;;;12.54;70.39;101368.38;5055021;28;20124;-45
2021/04/20 09:32:46;;;;;;;14.43;9.05;;;;;;;12.66;70.21;101374.78;5064591;28;20053;-49
2021/04/20 09:35:14;;;;;;;14.20;9.63;;;;;;;12.77;70.39;101367.63;5052610;28;20151;-44
2021/04/20 09:37:43;;;;;;;16.67;10.23;;;;;;;12.91;70.27;101366.47;5057293;28;20145;-45
2021/04/20 09:40:18;;;;;;;15.50;8.57;;;;;;;13.08;69.60;101378.22;5072089;28;20122;-50
2021/04/20 09:42:50;;;;;;;13.98;9.05;;;;;;;13.18;69.38;101365.84;5052483;28;20465;-47
2021/04/20 09:45:24;;;;;;;11.85;8.48;;;;;;;13.32;69.20;101367.09;5052038;28;20521;-46
2021/04/20 09:48:32;;;;;;;12.70;8.45;;;;;;;13.45;68.37;101376.22;5052507;28;20137;-51
2021/04/20 09:51:16;;;;;;;11.93;8.32;;;;;;;13.51;67.79;101376.81;5061733;28;20086;-45
2021/04/20 09:53:51;;;;;;;13.73;7.85;;;;;;;13.63;68.17;101388.75;5093213;28;20440;-46
2021/04/20 09:56:34;;;;;;;12.45;8.15;;;;;;;13.80;67.48;101377.34;5060444;28;20073;-46
2021/04/20 09:59:44;;;;;;;10.02;7.85;;;;;;;13.97;66.00;101382.66;5063574;28;20037;-47
2021/04/20 10:02:23;;;;;;;13.50;7.97;;;;;;;14.09;66.61;101384.56;5009341;28;20061;-49
2021/04/20 10:05:03;;;;;;;11.05;7.70;;;;;;;14.18;65.61;101381.63;5061714;28;20143;-46
2021/04/20 10:07:55;;;;;;;12.98;8.57;;;;;;;14.20;65.08;101380.13;5070999;28;20094;-46
2021/04/20 10:10:45;;;;;;;12.68;8.38;;;;;;;14.21;64.54;101378.16;5071768;28;20037;-49
2021/04/20 10:13:21;;;;;;;17.20;7.40;;;;;;;14.26;64.63;101380.69;5071142;28;20063;-48
2021/04/20 10:16:15;;;;;;;11.70;7.90;;;;;;;14.44;63.79;101382.00;5066902;28;20036;-49
2021/04/20 10:19:09;;;;;;;11.07;8.20;;;;;;;14.53;62.97;101377.88;5062983;28;20220;-50
2021/04/20 10:21:57;;;;;;;11.02;6.55;;;;;;;14.78;63.14;101381.34;5070512;28;20154;-48
2021/04/20 10:24:26;;;;;;;12.40;7.07;;;;;;;14.90;62.59;101381.28;5056062;28;20114;-48
2021/04/20 10:27:06;;;;;;;10.60;7.05;;;;;;;14.88;61.28;101389.19;5070921;28;20076;-49
2021/04/20 10:29:42;;;;;;;11.25;8.25;;;;;;;15.06;61.98;101379.28;5066755;28;20067;-47
2021/04/20 10:32:50;;;;;;;12.25;8.18;;;;;;;14.99;60.14;101381.09;5059044;28;20507;-50
2021/04/20 10:35:23;;;;;;;14.27;8.45;;;;;;;14.88;60.96;101386.41;5038913;28;20048;-50
2021/04/20 10:37:53;;;;;;;13.10;9.13;;;;;;;14.87;61.16;101382.00;5069555;28;20559;-48
2021/04/20 10:40:28;;;;;;;13.10;8.68;;;;;;;14.86;60.89;101380.38;5069304;28;20080;-48
2021/04/20 10:43:01;;;;;;;11.30;8.13;;;;;;;14.89;61.39;101384.41;5069205;28;20048;-51
2021/04/20 10:45:30;;;;;;;12.32;7.88;;;;;;;14.88;60.75;101389.19;5061100;28;20368;-53
2021/04/20 10:47:59;;;;;;;14.55;9.32;;;;;;;14.79;60.58;101385.78;5062201;28;20102;-53
2021/04/20 10:50:28;;;;;;;10.73;7.20;;;;;;;14.71;60.56;101383.97;5056689;28;20453;-51
2021/04/20 10:53:02;;;;;;;14.77;7.75;;;;;;;14.79;60.39;101379.38;5091432;28;20513;-52
2021/04/20 10:55:31;;;;;;;10.65;7.65;;;;;;;14.77;60.36;101390.91;5072350;28;20073;-48
2021/04/20 10:57:59;;;;;;;9.55;6.80;;;;;;;14.81;60.34;101389.00;5055498;28;20044;-51
2021/04/20 11:00:29;;;;;;;10.57;7.97;;;;;;;14.83;60.21;101378.31;5064532;28;20075;-56
2021/04/20 11:02:58;;;;;;;12.80;7.38;;;;;;;14.80;59.83;101381.78;5049694;28;20055;-54
2021/04/20 11:05:27;;;;;;;11.25;6.32;;;;;;;14.78;59.70;101375.78;5062315;28;20048;-52
2021/04/20 11:07:55;;;;;;;10.43;7.10;;;;;;;14.79;59.43;101382.16;5051273;28;20045;-50
2021/04/20 11:10:29;;;;;;;10.68;7.00;;;;;;;14.76;59.07;101377.31;5062122;28;20540;-46
2021/04/20 11:12:56;;;;;;;9.18;6.47;;;;;;;14.74;59.17;101383.25;5049870;28;20041;-52
2021/04/20 11:15:32;;;;;;;9.77;7.47;;;;;;;14.68;58.92;101383.84;5050325;28;20044;-51
2021/04/20 11:18:06;;;;;;;14.55;8.05;;;;;;;14.66;58.74;101377.84;5067710;28;20079;-53
2021/04/20 11:20:38;;;;;;;13.23;7.15;;;;;;;14.68;58.61;101381.06;5079931;28;20493;-50
2021/04/20 11:23:10;;;;;;;10.82;6.25;;;;;;;14.75;57.77;101386.81;5068558;28;20139;-49
2021/04/20 11:25:44;;;;;;;11.95;6.82;;;;;;;14.72;57.58;101380.00;5068472;28;20049;-50
2021/04/20 11:28:41;;;;;;;13.65;7.15;;;;;;;14.81;57.47;101382.63;5063439;28;20398;-49
2021/04/20 11:31:18;;;;;;;12.55;6.13;;;;;;;14.86;57.74;101374.78;5050852;28;20048;-49
2021/04/20 11:34:15;;;;;;;10.05;5.90;;;;;;;14.85;56.72;101383.53;5051042;28;20202;-48
2021/04/20 11:36:56;;;;;;;14.52;7.47;;;;;;;14.92;57.71;101381.72;5049044;28;20103;-52
2021/04/20 11:39:28;;;;;;;10.02;7.03;;;;;;;14.89;57.75;101384.41;5053978;28;20083;-53
2021/04/20 11:41:59;;;;;;;9.50;6.82;;;;;;;14.83;57.24;101378.31;5063157;28;20052;-49
2021/04/20 11:44:39;;;;;;;10.48;7.22;;;;;;;14.78;57.48;101381.34;5054787;28;20045;-47